createdAt,value
2022-10-08T00:09:29.277Z,10.10
2022-10-08T00:19:33.839Z,9.60
2022-10-08T00:29:37.601Z,9.20
2022-10-08T00:39:41.791Z,9.40
2022-10-08T00:49:51.695Z,9.50
2022-10-08T00:59:56.820Z,9.00
2022-10-08T01:10:23.025Z,9.20
2022-10-08T01:20:32.683Z,7.90
2022-10-08T01:30:40.708Z,8.90
2022-10-08T01:40:47.583Z,8.80
2022-10-08T01:50:51.248Z,7.30
2022-10-08T02:00:57.291Z,7.00
2022-10-08T02:11:01.052Z,6.20
2022-10-08T02:21:34.797Z,6.90
2022-10-08T02:31:42.064Z,5.90
2022-10-08T02:41:52.359Z,6.20
2022-10-08T02:52:02.378Z,7.10
2022-10-08T03:02:06.691Z,6.10
2022-10-08T03:12:10.824Z,5.90
2022-10-08T03:22:14.489Z,6.30
2022-10-08T03:32:18.051Z,5.10
2022-10-08T03:42:21.718Z,5.50
2022-10-08T03:52:25.397Z,5.80
2022-10-08T04:02:29.219Z,5.00
2022-10-08T04:12:32.916Z,5.80
2022-10-08T04:22:36.405Z,5.50
2022-10-08T04:32:40.270Z,5.60
2022-10-08T04:42:44.692Z,7.10
2022-10-08T04:52:49.443Z,9.90
2022-10-08T05:02:53.752Z,12.00
2022-10-08T05:12:57.583Z,9.30
2022-10-08T05:23:01.567Z,9.70
2022-10-08T05:33:05.435Z,9.40
2022-10-08T05:43:09.417Z,11.00
2022-10-08T05:53:13.420Z,8.20
2022-10-08T06:03:17.160Z,6.40
2022-10-08T06:13:22.130Z,7.20
2022-10-08T06:23:25.922Z,6.70
2022-10-08T06:33:30.383Z,7.30
2022-10-08T06:43:34.766Z,5.90
2022-10-08T06:53:39.680Z,5.50
2022-10-08T07:03:44.585Z,4.90
2022-10-08T07:13:48.844Z,4.70
2022-10-08T07:23:54.398Z,5.00
2022-10-08T07:34:00.361Z,4.00
2022-10-08T07:44:06.066Z,3.60
2022-10-08T07:54:14.951Z,4.20
2022-10-08T08:04:18.727Z,3.70
2022-10-08T08:14:22.591Z,4.00
2022-10-08T08:24:26.057Z,4.00
2022-10-08T08:34:30.842Z,4.30
2022-10-08T08:44:38.908Z,4.70
2022-10-08T08:54:46.674Z,3.10
2022-10-08T09:15:02.388Z,2.50
2022-10-08T09:25:20.815Z,3.00
2022-10-08T09:35:25.802Z,2.80
2022-10-08T09:45:39.274Z,3.00
2022-10-08T09:55:52.458Z,2.60
2022-10-08T10:05:59.597Z,2.80
2022-10-08T10:16:26.350Z,2.40
2022-10-08T10:26:36.324Z,2.60
2022-10-08T10:37:02.699Z,2.50
2022-10-08T10:47:09.539Z,2.10
2022-10-08T10:57:35.508Z,2.30
2022-10-08T11:08:08.067Z,2.40
2022-10-08T11:18:24.316Z,2.30
2022-10-08T11:29:01.334Z,2.50
2022-10-08T11:39:19.404Z,2.10
2022-10-08T11:49:25.684Z,2.00
2022-10-08T11:59:37.174Z,2.50
2022-10-08T12:10:05.520Z,2.30
2022-10-08T12:20:23.321Z,2.20
2022-10-08T12:30:46.810Z,2.60
2022-10-08T12:41:01.133Z,2.60
2022-10-08T12:51:22.212Z,3.10
2022-10-08T13:01:26.979Z,2.70
2022-10-08T13:11:31.026Z,2.80
2022-10-08T13:21:38.255Z,2.80
2022-10-08T13:31:42.243Z,3.60
2022-10-08T13:41:52.435Z,3.00
2022-10-08T13:51:59.436Z,4.70
2022-10-08T14:02:03.950Z,4.50
2022-10-08T14:12:09.685Z,8.00
2022-10-08T14:22:15.062Z,8.60
2022-10-08T14:32:18.905Z,6.00
2022-10-08T14:42:22.462Z,5.10
2022-10-08T14:52:26.591Z,5.60
2022-10-08T15:02:30.717Z,5.20
2022-10-08T15:12:35.535Z,5.20
2022-10-08T15:22:39.487Z,5.50
2022-10-08T15:32:43.357Z,5.10
2022-10-08T15:42:52.790Z,4.70
2022-10-08T15:52:57.068Z,6.00
2022-10-08T16:03:01.001Z,6.10
2022-10-08T16:13:05.185Z,7.10
2022-10-08T16:23:09.885Z,10.20
2022-10-08T16:33:13.958Z,9.80
2022-10-08T16:43:17.708Z,11.80
2022-10-08T16:53:21.599Z,11.40
2022-10-08T17:03:25.353Z,12.60
2022-10-08T17:13:29.238Z,15.10
2022-10-08T17:23:37.396Z,16.40
2022-10-08T17:33:43.231Z,16.60
2022-10-08T17:43:48.642Z,16.40
2022-10-08T17:53:54.837Z,17.90
2022-10-08T18:04:04.986Z,18.00
2022-10-08T18:14:09.224Z,19.70
2022-10-08T18:24:14.332Z,22.00
2022-10-08T18:34:19.291Z,22.70
2022-10-08T18:44:25.951Z,20.90
2022-10-08T18:54:33.310Z,20.20
2022-10-08T19:04:40.564Z,20.80
2022-10-08T19:14:45.027Z,23.80
2022-10-08T19:24:49.632Z,23.00
2022-10-08T19:34:54.164Z,24.60
2022-10-08T19:44:59.121Z,24.70
2022-10-08T19:55:06.285Z,23.60
2022-10-08T20:05:10.475Z,21.60
2022-10-08T20:15:14.602Z,22.00
2022-10-08T20:25:20.838Z,24.40
2022-10-08T20:35:24.817Z,25.60
2022-10-08T20:45:28.894Z,28.40
2022-10-08T20:55:32.864Z,31.70
2022-10-08T21:05:43.387Z,26.50
2022-10-08T21:15:49.174Z,23.70
2022-10-08T21:26:14.673Z,25.00
2022-10-08T21:36:27.431Z,20.30
2022-10-08T21:46:34.317Z,20.30
2022-10-08T21:56:39.835Z,20.60
2022-10-08T22:06:46.667Z,21.30
2022-10-08T22:16:51.007Z,20.50
2022-10-08T22:26:54.882Z,19.90
2022-10-08T22:36:58.793Z,20.90
2022-10-08T22:47:02.535Z,21.50
2022-10-08T22:57:06.264Z,19.70
2022-10-08T23:07:10.039Z,20.50
2022-10-08T23:17:13.709Z,20.20
2022-10-08T23:27:17.186Z,19.70
2022-10-08T23:37:20.644Z,18.20
2022-10-08T23:47:24.507Z,17.60
2022-10-08T23:57:28.171Z,13.90
